sensor_id;sensor_type;location;lat;lon;timestamp;P1;durP1;ratioP1;P2;durP2;ratioP2
44197;SDS011;30157;55.512;37.764;2023-12-07T00:01:53;40.58;;;14.10;;
44197;SDS011;30157;55.512;37.764;2023-12-07T00:04:19;34.03;;;14.27;;
44197;SDS011;30157;55.512;37.764;2023-12-07T00:06:45;35.80;;;13.93;;
44197;SDS011;30157;55.512;37.764;2023-12-07T00:09:11;38.65;;;14.32;;
44197;SDS011;30157;55.512;37.764;2023-12-07T00:11:36;44.00;;;15.13;;
44197;SDS011;30157;55.512;37.764;2023-12-07T00:14:02;37.40;;;14.43;;
44197;SDS011;30157;55.512;37.764;2023-12-07T00:16:28;36.97;;;13.60;;
44197;SDS011;30157;55.512;37.764;2023-12-07T00:18:54;33.45;;;14.05;;
44197;SDS011;30157;55.512;37.764;2023-12-07T00:21:19;42.92;;;16.17;;
44197;SDS011;30157;55.512;37.764;2023-12-07T00:23:45;35.55;;;14.68;;
44197;SDS011;30157;55.512;37.764;2023-12-07T00:26:11;33.83;;;14.43;;
44197;SDS011;30157;55.512;37.764;2023-12-07T00:28:36;39.13;;;13.30;;
44197;SDS011;30157;55.512;37.764;2023-12-07T00:31:02;35.50;;;14.07;;
44197;SDS011;30157;55.512;37.764;2023-12-07T00:33:28;33.35;;;14.18;;
44197;SDS011;30157;55.512;37.764;2023-12-07T00:35:54;38.80;;;14.13;;
44197;SDS011;30157;55.512;37.764;2023-12-07T00:38:20;36.42;;;14.00;;
44197;SDS011;30157;55.512;37.764;2023-12-07T00:40:46;37.70;;;14.40;;
44197;SDS011;30157;55.512;37.764;2023-12-07T00:43:12;37.22;;;13.57;;
44197;SDS011;30157;55.512;37.764;2023-12-07T00:45:38;38.60;;;14.45;;
44197;SDS011;30157;55.512;37.764;2023-12-07T00:48:04;40.05;;;16.00;;
44197;SDS011;30157;55.512;37.764;2023-12-07T00:50:30;39.40;;;13.48;;
44197;SDS011;30157;55.512;37.764;2023-12-07T00:52:56;35.35;;;14.27;;
44197;SDS011;30157;55.512;37.764;2023-12-07T00:55:22;37.35;;;14.02;;
44197;SDS011;30157;55.512;37.764;2023-12-07T00:57:48;41.55;;;15.25;;
44197;SDS011;30157;55.512;37.764;2023-12-07T01:00:14;34.30;;;11.98;;
44197;SDS011;30157;55.512;37.764;2023-12-07T01:02:39;33.08;;;13.05;;
44197;SDS011;30157;55.512;37.764;2023-12-07T01:05:05;34.17;;;13.70;;
44197;SDS011;30157;55.512;37.764;2023-12-07T01:07:31;36.85;;;12.30;;
44197;SDS011;30157;55.512;37.764;2023-12-07T01:09:57;31.30;;;12.70;;
44197;SDS011;30157;55.512;37.764;2023-12-07T01:12:23;34.05;;;12.43;;
44197;SDS011;30157;55.512;37.764;2023-12-07T01:14:49;27.50;;;13.25;;
44197;SDS011;30157;55.512;37.764;2023-12-07T01:17:14;35.80;;;12.50;;
44197;SDS011;30157;55.512;37.764;2023-12-07T01:19:40;32.28;;;12.95;;
44197;SDS011;30157;55.512;37.764;2023-12-07T01:22:06;38.45;;;12.82;;
44197;SDS011;30157;55.512;37.764;2023-12-07T01:24:32;33.92;;;12.57;;
44197;SDS011;30157;55.512;37.764;2023-12-07T01:26:57;34.95;;;13.07;;
44197;SDS011;30157;55.512;37.764;2023-12-07T01:29:24;40.33;;;13.63;;
44197;SDS011;30157;55.512;37.764;2023-12-07T01:31:50;37.75;;;12.00;;
44197;SDS011;30157;55.512;37.764;2023-12-07T01:34:17;31.45;;;13.85;;
44197;SDS011;30157;55.512;37.764;2023-12-07T01:36:43;32.92;;;13.90;;
44197;SDS011;30157;55.512;37.764;2023-12-07T01:39:10;31.38;;;12.35;;
44197;SDS011;30157;55.512;37.764;2023-12-07T01:41:39;36.65;;;12.75;;
44197;SDS011;30157;55.512;37.764;2023-12-07T01:44:05;36.35;;;14.07;;
44197;SDS011;30157;55.512;37.764;2023-12-07T01:46:31;27.55;;;12.07;;
44197;SDS011;30157;55.512;37.764;2023-12-07T01:48:58;32.28;;;12.57;;
44197;SDS011;30157;55.512;37.764;2023-12-07T01:51:24;37.22;;;12.23;;
44197;SDS011;30157;55.512;37.764;2023-12-07T01:53:51;32.17;;;12.85;;
44197;SDS011;30157;55.512;37.764;2023-12-07T01:56:18;37.63;;;12.43;;
44197;SDS011;30157;55.512;37.764;2023-12-07T01:58:44;36.13;;;12.27;;
44197;SDS011;30157;55.512;37.764;2023-12-07T02:01:10;29.23;;;11.63;;
44197;SDS011;30157;55.512;37.764;2023-12-07T02:03:40;33.30;;;12.50;;
44197;SDS011;30157;55.512;37.764;2023-12-07T02:06:06;32.13;;;11.90;;
44197;SDS011;30157;55.512;37.764;2023-12-07T02:08:34;27.95;;;10.60;;
44197;SDS011;30157;55.512;37.764;2023-12-07T02:11:01;27.70;;;10.57;;
44197;SDS011;30157;55.512;37.764;2023-12-07T02:13:28;30.77;;;11.02;;
44197;SDS011;30157;55.512;37.764;2023-12-07T02:15:54;28.63;;;11.30;;
44197;SDS011;30157;55.512;37.764;2023-12-07T02:23:57;24.48;;;10.43;;
44197;SDS011;30157;55.512;37.764;2023-12-07T02:26:30;31.98;;;11.20;;
44197;SDS011;30157;55.512;37.764;2023-12-07T02:29:03;29.83;;;10.52;;
44197;SDS011;30157;55.512;37.764;2023-12-07T02:31:29;20.80;;;7.57;;
44197;SDS011;30157;55.512;37.764;2023-12-07T02:33:55;29.45;;;10.43;;
44197;SDS011;30157;55.512;37.764;2023-12-07T02:36:22;28.27;;;9.55;;
44197;SDS011;30157;55.512;37.764;2023-12-07T02:38:51;31.63;;;10.93;;
44197;SDS011;30157;55.512;37.764;2023-12-07T02:41:21;30.80;;;9.90;;
44197;SDS011;30157;55.512;37.764;2023-12-07T02:43:48;24.75;;;9.63;;
44197;SDS011;30157;55.512;37.764;2023-12-07T02:46:13;25.92;;;10.02;;
44197;SDS011;30157;55.512;37.764;2023-12-07T02:48:39;28.77;;;11.10;;
44197;SDS011;30157;55.512;37.764;2023-12-07T02:51:05;30.88;;;11.05;;
44197;SDS011;30157;55.512;37.764;2023-12-07T02:53:31;25.98;;;10.65;;
44197;SDS011;30157;55.512;37.764;2023-12-07T02:55:57;26.90;;;10.50;;
44197;SDS011;30157;55.512;37.764;2023-12-07T02:58:22;26.90;;;10.02;;
44197;SDS011;30157;55.512;37.764;2023-12-07T03:00:49;24.67;;;9.38;;
44197;SDS011;30157;55.512;37.764;2023-12-07T03:03:15;22.08;;;9.48;;
44197;SDS011;30157;55.512;37.764;2023-12-07T03:05:40;20.02;;;8.48;;
44197;SDS011;30157;55.512;37.764;2023-12-07T03:08:06;25.98;;;9.30;;
44197;SDS011;30157;55.512;37.764;2023-12-07T03:10:32;28.98;;;12.02;;
44197;SDS011;30157;55.512;37.764;2023-12-07T03:12:57;19.08;;;8.38;;
44197;SDS011;30157;55.512;37.764;2023-12-07T03:15:23;22.95;;;9.00;;
44197;SDS011;30157;55.512;37.764;2023-12-07T03:17:49;18.52;;;8.68;;
44197;SDS011;30157;55.512;37.764;2023-12-07T03:20:15;23.17;;;9.18;;
44197;SDS011;30157;55.512;37.764;2023-12-07T03:22:42;28.17;;;11.38;;
44197;SDS011;30157;55.512;37.764;2023-12-07T03:25:08;27.90;;;11.07;;
44197;SDS011;30157;55.512;37.764;2023-12-07T03:27:34;23.85;;;9.50;;
44197;SDS011;30157;55.512;37.764;2023-12-07T03:29:59;22.50;;;10.30;;
44197;SDS011;30157;55.512;37.764;2023-12-07T03:32:25;26.83;;;10.00;;
44197;SDS011;30157;55.512;37.764;2023-12-07T03:34:51;25.35;;;10.05;;
44197;SDS011;30157;55.512;37.764;2023-12-07T03:37:17;26.77;;;10.27;;
44197;SDS011;30157;55.512;37.764;2023-12-07T03:39:42;23.73;;;9.98;;
44197;SDS011;30157;55.512;37.764;2023-12-07T03:42:08;25.50;;;10.02;;
44197;SDS011;30157;55.512;37.764;2023-12-07T03:44:34;25.00;;;9.65;;
44197;SDS011;30157;55.512;37.764;2023-12-07T03:47:00;26.70;;;9.90;;
44197;SDS011;30157;55.512;37.764;2023-12-07T03:49:26;27.50;;;9.80;;
44197;SDS011;30157;55.512;37.764;2023-12-07T03:51:52;25.85;;;9.73;;
44197;SDS011;30157;55.512;37.764;2023-12-07T03:54:18;26.05;;;9.57;;
44197;SDS011;30157;55.512;37.764;2023-12-07T03:56:44;24.25;;;9.73;;
44197;SDS011;30157;55.512;37.764;2023-12-07T03:59:09;29.33;;;9.82;;
44197;SDS011;30157;55.512;37.764;2023-12-07T04:01:35;27.25;;;9.90;;
44197;SDS011;30157;55.512;37.764;2023-12-07T04:04:01;27.73;;;11.18;;
44197;SDS011;30157;55.512;37.764;2023-12-07T04:06:27;25.25;;;9.27;;
44197;SDS011;30157;55.512;37.764;2023-12-07T04:08:53;22.80;;;8.77;;
44197;SDS011;30157;55.512;37.764;2023-12-07T04:11:18;25.90;;;10.75;;
44197;SDS011;30157;55.512;37.764;2023-12-07T04:13:44;26.35;;;10.20;;
44197;SDS011;30157;55.512;37.764;2023-12-07T04:16:10;23.40;;;9.23;;
44197;SDS011;30157;55.512;37.764;2023-12-07T04:18:36;24.85;;;8.77;;
44197;SDS011;30157;55.512;37.764;2023-12-07T04:21:03;24.98;;;9.20;;
44197;SDS011;30157;55.512;37.764;2023-12-07T04:23:29;24.73;;;9.20;;
44197;SDS011;30157;55.512;37.764;2023-12-07T04:25:54;13.63;;;5.80;;
44197;SDS011;30157;55.512;37.764;2023-12-07T04:28:20;21.52;;;8.93;;
44197;SDS011;30157;55.512;37.764;2023-12-07T04:30:46;20.80;;;7.55;;
44197;SDS011;30157;55.512;37.764;2023-12-07T04:33:12;28.23;;;11.13;;
44197;SDS011;30157;55.512;37.764;2023-12-07T04:35:38;26.02;;;9.60;;
44197;SDS011;30157;55.512;37.764;2023-12-07T04:38:03;22.73;;;9.45;;
44197;SDS011;30157;55.512;37.764;2023-12-07T04:40:29;23.45;;;8.38;;
44197;SDS011;30157;55.512;37.764;2023-12-07T04:42:55;18.63;;;8.30;;
44197;SDS011;30157;55.512;37.764;2023-12-07T04:45:21;28.13;;;8.80;;
44197;SDS011;30157;55.512;37.764;2023-12-07T04:47:47;25.80;;;9.82;;
44197;SDS011;30157;55.512;37.764;2023-12-07T04:50:14;20.05;;;8.50;;
44197;SDS011;30157;55.512;37.764;2023-12-07T04:52:40;25.83;;;9.85;;
44197;SDS011;30157;55.512;37.764;2023-12-07T04:55:06;21.55;;;8.82;;
44197;SDS011;30157;55.512;37.764;2023-12-07T04:57:34;18.13;;;8.05;;
44197;SDS011;30157;55.512;37.764;2023-12-07T05:00:00;24.10;;;9.70;;
44197;SDS011;30157;55.512;37.764;2023-12-07T05:02:32;17.77;;;8.18;;
44197;SDS011;30157;55.512;37.764;2023-12-07T05:04:58;21.52;;;10.05;;
44197;SDS011;30157;55.512;37.764;2023-12-07T05:07:24;19.55;;;8.15;;
44197;SDS011;30157;55.512;37.764;2023-12-07T05:09:50;21.42;;;8.73;;
44197;SDS011;30157;55.512;37.764;2023-12-07T05:12:16;15.68;;;7.80;;
44197;SDS011;30157;55.512;37.764;2023-12-07T05:14:42;21.45;;;7.72;;
44197;SDS011;30157;55.512;37.764;2023-12-07T05:17:08;16.60;;;6.35;;
44197;SDS011;30157;55.512;37.764;2023-12-07T05:19:34;22.35;;;7.97;;
44197;SDS011;30157;55.512;37.764;2023-12-07T05:22:00;22.98;;;8.32;;
44197;SDS011;30157;55.512;37.764;2023-12-07T05:24:27;20.45;;;9.48;;
44197;SDS011;30157;55.512;37.764;2023-12-07T05:26:53;17.23;;;7.57;;
44197;SDS011;30157;55.512;37.764;2023-12-07T05:29:19;21.80;;;8.25;;
44197;SDS011;30157;55.512;37.764;2023-12-07T05:31:44;19.92;;;8.02;;
44197;SDS011;30157;55.512;37.764;2023-12-07T05:34:10;14.00;;;7.13;;
44197;SDS011;30157;55.512;37.764;2023-12-07T05:36:36;22.08;;;8.60;;
44197;SDS011;30157;55.512;37.764;2023-12-07T05:39:02;20.50;;;8.05;;
44197;SDS011;30157;55.512;37.764;2023-12-07T05:41:28;25.60;;;9.52;;
44197;SDS011;30157;55.512;37.764;2023-12-07T05:43:54;25.63;;;9.50;;
44197;SDS011;30157;55.512;37.764;2023-12-07T05:46:19;18.30;;;7.72;;
44197;SDS011;30157;55.512;37.764;2023-12-07T05:48:45;23.33;;;9.68;;
44197;SDS011;30157;55.512;37.764;2023-12-07T05:51:12;20.88;;;9.38;;
44197;SDS011;30157;55.512;37.764;2023-12-07T05:53:40;21.75;;;9.65;;
44197;SDS011;30157;55.512;37.764;2023-12-07T05:56:06;22.70;;;8.68;;
44197;SDS011;30157;55.512;37.764;2023-12-07T05:58:32;18.35;;;7.88;;
44197;SDS011;30157;55.512;37.764;2023-12-07T06:00:58;24.05;;;9.90;;
44197;SDS011;30157;55.512;37.764;2023-12-07T06:03:25;21.95;;;7.97;;
44197;SDS011;30157;55.512;37.764;2023-12-07T06:05:51;27.42;;;9.57;;
44197;SDS011;30157;55.512;37.764;2023-12-07T06:08:17;23.00;;;8.95;;
44197;SDS011;30157;55.512;37.764;2023-12-07T06:10:43;21.55;;;9.15;;
44197;SDS011;30157;55.512;37.764;2023-12-07T06:13:09;26.30;;;10.55;;
44197;SDS011;30157;55.512;37.764;2023-12-07T06:15:36;20.98;;;9.13;;
44197;SDS011;30157;55.512;37.764;2023-12-07T06:18:02;21.10;;;9.13;;
44197;SDS011;30157;55.512;37.764;2023-12-07T06:20:28;25.65;;;9.43;;
44197;SDS011;30157;55.512;37.764;2023-12-07T06:22:54;22.92;;;9.23;;
44197;SDS011;30157;55.512;37.764;2023-12-07T06:25:20;24.38;;;10.07;;
44197;SDS011;30157;55.512;37.764;2023-12-07T06:27:46;25.20;;;9.45;;
44197;SDS011;30157;55.512;37.764;2023-12-07T06:30:12;25.65;;;10.55;;
44197;SDS011;30157;55.512;37.764;2023-12-07T06:32:38;26.95;;;9.30;;
44197;SDS011;30157;55.512;37.764;2023-12-07T06:35:04;30.35;;;11.00;;
44197;SDS011;30157;55.512;37.764;2023-12-07T06:37:31;24.52;;;9.70;;
44197;SDS011;30157;55.512;37.764;2023-12-07T06:39:57;25.65;;;9.95;;
44197;SDS011;30157;55.512;37.764;2023-12-07T06:42:24;24.08;;;10.30;;
44197;SDS011;30157;55.512;37.764;2023-12-07T06:44:49;23.73;;;8.43;;
44197;SDS011;30157;55.512;37.764;2023-12-07T06:47:15;29.08;;;11.18;;
44197;SDS011;30157;55.512;37.764;2023-12-07T06:49:41;24.15;;;10.02;;
44197;SDS011;30157;55.512;37.764;2023-12-07T06:52:07;24.42;;;10.00;;
44197;SDS011;30157;55.512;37.764;2023-12-07T06:54:34;27.10;;;10.40;;
44197;SDS011;30157;55.512;37.764;2023-12-07T06:56:59;25.60;;;10.82;;
44197;SDS011;30157;55.512;37.764;2023-12-07T06:59:25;22.30;;;8.05;;
44197;SDS011;30157;55.512;37.764;2023-12-07T07:01:51;27.00;;;11.57;;
44197;SDS011;30157;55.512;37.764;2023-12-07T07:04:17;25.80;;;11.70;;
44197;SDS011;30157;55.512;37.764;2023-12-07T07:06:42;23.00;;;8.52;;
44197;SDS011;30157;55.512;37.764;2023-12-07T07:09:09;24.90;;;10.65;;
44197;SDS011;30157;55.512;37.764;2023-12-07T07:11:35;20.42;;;8.50;;
44197;SDS011;30157;55.512;37.764;2023-12-07T07:14:02;22.65;;;11.02;;
44197;SDS011;30157;55.512;37.764;2023-12-07T07:16:28;20.65;;;9.25;;
44197;SDS011;30157;55.512;37.764;2023-12-07T07:18:54;22.90;;;9.48;;
44197;SDS011;30157;55.512;37.764;2023-12-07T07:21:19;19.60;;;8.65;;
44197;SDS011;30157;55.512;37.764;2023-12-07T07:23:45;21.33;;;9.63;;
44197;SDS011;30157;55.512;37.764;2023-12-07T07:26:11;18.60;;;9.68;;
44197;SDS011;30157;55.512;37.764;2023-12-07T07:28:44;20.50;;;9.55;;
44197;SDS011;30157;55.512;37.764;2023-12-07T07:31:10;19.63;;;9.60;;
44197;SDS011;30157;55.512;37.764;2023-12-07T07:33:36;21.70;;;10.07;;
44197;SDS011;30157;55.512;37.764;2023-12-07T07:36:01;19.55;;;10.20;;
44197;SDS011;30157;55.512;37.764;2023-12-07T07:38:27;19.48;;;9.23;;
44197;SDS011;30157;55.512;37.764;2023-12-07T07:40:53;18.33;;;8.73;;
44197;SDS011;30157;55.512;37.764;2023-12-07T07:43:19;18.50;;;8.85;;
44197;SDS011;30157;55.512;37.764;2023-12-07T07:45:44;18.65;;;8.75;;
44197;SDS011;30157;55.512;37.764;2023-12-07T07:48:11;16.10;;;8.75;;
44197;SDS011;30157;55.512;37.764;2023-12-07T07:50:37;19.30;;;9.38;;
44197;SDS011;30157;55.512;37.764;2023-12-07T07:53:03;17.60;;;9.40;;
44197;SDS011;30157;55.512;37.764;2023-12-07T07:55:29;16.60;;;7.80;;
44197;SDS011;30157;55.512;37.764;2023-12-07T07:57:56;18.30;;;8.55;;
44197;SDS011;30157;55.512;37.764;2023-12-07T08:00:22;21.92;;;10.10;;
44197;SDS011;30157;55.512;37.764;2023-12-07T08:02:51;16.05;;;8.55;;
44197;SDS011;30157;55.512;37.764;2023-12-07T08:05:17;15.30;;;8.40;;
44197;SDS011;30157;55.512;37.764;2023-12-07T08:07:43;15.43;;;7.82;;
44197;SDS011;30157;55.512;37.764;2023-12-07T08:10:08;18.33;;;7.60;;
44197;SDS011;30157;55.512;37.764;2023-12-07T08:12:34;17.58;;;8.38;;
44197;SDS011;30157;55.512;37.764;2023-12-07T08:15:00;13.70;;;6.93;;
44197;SDS011;30157;55.512;37.764;2023-12-07T08:17:29;16.48;;;7.97;;
44197;SDS011;30157;55.512;37.764;2023-12-07T08:19:55;15.55;;;7.32;;
44197;SDS011;30157;55.512;37.764;2023-12-07T08:22:20;14.70;;;7.63;;
44197;SDS011;30157;55.512;37.764;2023-12-07T08:24:46;16.38;;;7.35;;
44197;SDS011;30157;55.512;37.764;2023-12-07T08:27:12;16.25;;;7.47;;
44197;SDS011;30157;55.512;37.764;2023-12-07T08:29:38;14.48;;;7.63;;
44197;SDS011;30157;55.512;37.764;2023-12-07T08:32:04;16.50;;;8.73;;
44197;SDS011;30157;55.512;37.764;2023-12-07T08:34:30;16.67;;;8.65;;
44197;SDS011;30157;55.512;37.764;2023-12-07T08:36:56;13.35;;;6.80;;
44197;SDS011;30157;55.512;37.764;2023-12-07T08:39:22;16.88;;;8.00;;
44197;SDS011;30157;55.512;37.764;2023-12-07T08:41:48;15.85;;;8.68;;
44197;SDS011;30157;55.512;37.764;2023-12-07T08:44:13;15.93;;;8.15;;
44197;SDS011;30157;55.512;37.764;2023-12-07T08:46:39;15.18;;;6.07;;
44197;SDS011;30157;55.512;37.764;2023-12-07T08:49:05;14.88;;;7.50;;
44197;SDS011;30157;55.512;37.764;2023-12-07T08:51:31;13.50;;;6.70;;
44197;SDS011;30157;55.512;37.764;2023-12-07T08:53:57;16.35;;;8.15;;
44197;SDS011;30157;55.512;37.764;2023-12-07T08:56:22;16.08;;;7.63;;
44197;SDS011;30157;55.512;37.764;2023-12-07T08:58:48;19.30;;;9.13;;
44197;SDS011;30157;55.512;37.764;2023-12-07T09:01:14;19.92;;;9.60;;
44197;SDS011;30157;55.512;37.764;2023-12-07T09:03:40;18.05;;;7.53;;
44197;SDS011;30157;55.512;37.764;2023-12-07T09:06:07;17.65;;;7.00;;
44197;SDS011;30157;55.512;37.764;2023-12-07T09:08:33;15.05;;;7.13;;
44197;SDS011;30157;55.512;37.764;2023-12-07T09:10:59;16.55;;;8.00;;
44197;SDS011;30157;55.512;37.764;2023-12-07T09:13:25;16.92;;;7.97;;
44197;SDS011;30157;55.512;37.764;2023-12-07T09:15:51;14.40;;;7.13;;
44197;SDS011;30157;55.512;37.764;2023-12-07T09:18:16;14.10;;;6.65;;
44197;SDS011;30157;55.512;37.764;2023-12-07T09:20:42;13.10;;;6.30;;
44197;SDS011;30157;55.512;37.764;2023-12-07T09:23:11;13.30;;;6.30;;
44197;SDS011;30157;55.512;37.764;2023-12-07T09:25:41;12.13;;;6.53;;
44197;SDS011;30157;55.512;37.764;2023-12-07T09:28:07;13.30;;;6.40;;
44197;SDS011;30157;55.512;37.764;2023-12-07T09:30:34;7.47;;;3.72;;
44197;SDS011;30157;55.512;37.764;2023-12-07T09:33:00;14.18;;;6.00;;
44197;SDS011;30157;55.512;37.764;2023-12-07T09:35:28;12.50;;;4.97;;
44197;SDS011;30157;55.512;37.764;2023-12-07T09:37:54;16.05;;;5.95;;
44197;SDS011;30157;55.512;37.764;2023-12-07T09:40:20;12.07;;;6.15;;
44197;SDS011;30157;55.512;37.764;2023-12-07T09:42:48;13.38;;;6.38;;
44197;SDS011;30157;55.512;37.764;2023-12-07T09:45:15;12.05;;;5.72;;
44197;SDS011;30157;55.512;37.764;2023-12-07T09:47:43;14.30;;;6.57;;
44197;SDS011;30157;55.512;37.764;2023-12-07T09:50:13;15.25;;;6.53;;
44197;SDS011;30157;55.512;37.764;2023-12-07T09:52:43;15.23;;;6.80;;
44197;SDS011;30157;55.512;37.764;2023-12-07T09:55:09;16.08;;;6.53;;
44197;SDS011;30157;55.512;37.764;2023-12-07T09:57:36;16.15;;;7.50;;
44197;SDS011;30157;55.512;37.764;2023-12-07T10:00:03;11.35;;;5.55;;
44197;SDS011;30157;55.512;37.764;2023-12-07T10:02:35;12.73;;;6.30;;
44197;SDS011;30157;55.512;37.764;2023-12-07T10:05:03;11.60;;;6.00;;
44197;SDS011;30157;55.512;37.764;2023-12-07T10:07:38;14.93;;;6.85;;
44197;SDS011;30157;55.512;37.764;2023-12-07T10:10:06;13.82;;;6.32;;
44197;SDS011;30157;55.512;37.764;2023-12-07T10:12:33;11.18;;;4.75;;
44197;SDS011;30157;55.512;37.764;2023-12-07T10:15:01;16.85;;;7.55;;
44197;SDS011;30157;55.512;37.764;2023-12-07T10:17:51;14.40;;;6.10;;
44197;SDS011;30157;55.512;37.764;2023-12-07T10:20:28;11.20;;;5.80;;
44197;SDS011;30157;55.512;37.764;2023-12-07T10:23:04;13.25;;;6.03;;
44197;SDS011;30157;55.512;37.764;2023-12-07T10:25:36;12.77;;;6.15;;
44197;SDS011;30157;55.512;37.764;2023-12-07T10:28:09;16.67;;;6.88;;
44197;SDS011;30157;55.512;37.764;2023-12-07T10:30:37;13.38;;;5.88;;
44197;SDS011;30157;55.512;37.764;2023-12-07T10:33:05;13.32;;;6.65;;
44197;SDS011;30157;55.512;37.764;2023-12-07T10:35:33;16.35;;;6.88;;
44197;SDS011;30157;55.512;37.764;2023-12-07T10:38:03;15.13;;;6.07;;
44197;SDS011;30157;55.512;37.764;2023-12-07T10:40:28;13.73;;;6.65;;
44197;SDS011;30157;55.512;37.764;2023-12-07T10:42:56;15.38;;;6.35;;
44197;SDS011;30157;55.512;37.764;2023-12-07T10:45:27;14.65;;;7.22;;
44197;SDS011;30157;55.512;37.764;2023-12-07T10:47:56;13.57;;;6.68;;
44197;SDS011;30157;55.512;37.764;2023-12-07T10:50:31;21.10;;;9.15;;
44197;SDS011;30157;55.512;37.764;2023-12-07T10:53:02;20.30;;;7.85;;
44197;SDS011;30157;55.512;37.764;2023-12-07T10:55:35;14.97;;;7.03;;
44197;SDS011;30157;55.512;37.764;2023-12-07T10:58:14;17.15;;;6.95;;
44197;SDS011;30157;55.512;37.764;2023-12-07T11:00:44;17.13;;;6.43;;
44197;SDS011;30157;55.512;37.764;2023-12-07T11:03:16;15.20;;;6.78;;
44197;SDS011;30157;55.512;37.764;2023-12-07T11:05:46;17.90;;;7.78;;
44197;SDS011;30157;55.512;37.764;2023-12-07T11:08:15;15.02;;;7.10;;
44197;SDS011;30157;55.512;37.764;2023-12-07T11:11:17;14.95;;;7.35;;
44197;SDS011;30157;55.512;37.764;2023-12-07T11:13:59;17.23;;;7.35;;
44197;SDS011;30157;55.512;37.764;2023-12-07T11:16:32;19.70;;;8.55;;
44197;SDS011;30157;55.512;37.764;2023-12-07T11:19:00;18.65;;;8.65;;
44197;SDS011;30157;55.512;37.764;2023-12-07T11:21:26;13.90;;;5.82;;
44197;SDS011;30157;55.512;37.764;2023-12-07T11:23:53;16.20;;;7.22;;
44197;SDS011;30157;55.512;37.764;2023-12-07T11:26:28;16.00;;;7.32;;
44197;SDS011;30157;55.512;37.764;2023-12-07T11:28:54;18.80;;;7.75;;
44197;SDS011;30157;55.512;37.764;2023-12-07T11:31:21;16.80;;;6.57;;
44197;SDS011;30157;55.512;37.764;2023-12-07T11:33:47;18.17;;;6.57;;
44197;SDS011;30157;55.512;37.764;2023-12-07T11:36:13;18.38;;;8.07;;
44197;SDS011;30157;55.512;37.764;2023-12-07T11:41:29;19.55;;;7.03;;
44197;SDS011;30157;55.512;37.764;2023-12-07T11:43:58;17.92;;;8.27;;
44197;SDS011;30157;55.512;37.764;2023-12-07T11:46:24;16.67;;;7.13;;
44197;SDS011;30157;55.512;37.764;2023-12-07T11:48:50;20.63;;;7.13;;
44197;SDS011;30157;55.512;37.764;2023-12-07T11:51:17;17.90;;;7.20;;
44197;SDS011;30157;55.512;37.764;2023-12-07T11:53:43;18.77;;;8.68;;
44197;SDS011;30157;55.512;37.764;2023-12-07T11:56:09;19.42;;;8.02;;
44197;SDS011;30157;55.512;37.764;2023-12-07T11:58:36;16.20;;;7.15;;
44197;SDS011;30157;55.512;37.764;2023-12-07T12:01:03;17.42;;;8.45;;
44197;SDS011;30157;55.512;37.764;2023-12-07T12:03:30;17.67;;;7.50;;
44197;SDS011;30157;55.512;37.764;2023-12-07T12:06:05;22.90;;;8.52;;
44197;SDS011;30157;55.512;37.764;2023-12-07T12:08:33;15.07;;;8.10;;
44197;SDS011;30157;55.512;37.764;2023-12-07T12:10:59;15.07;;;7.43;;
44197;SDS011;30157;55.512;37.764;2023-12-07T12:13:33;19.63;;;7.97;;
44197;SDS011;30157;55.512;37.764;2023-12-07T12:16:00;20.58;;;8.73;;
44197;SDS011;30157;55.512;37.764;2023-12-07T12:18:26;21.40;;;9.38;;
44197;SDS011;30157;55.512;37.764;2023-12-07T12:20:53;22.85;;;9.65;;
44197;SDS011;30157;55.512;37.764;2023-12-07T12:23:19;17.50;;;8.13;;
44197;SDS011;30157;55.512;37.764;2023-12-07T12:25:46;21.40;;;9.27;;
44197;SDS011;30157;55.512;37.764;2023-12-07T12:28:17;19.83;;;8.43;;
44197;SDS011;30157;55.512;37.764;2023-12-07T12:30:44;17.05;;;8.82;;
44197;SDS011;30157;55.512;37.764;2023-12-07T12:33:11;20.48;;;8.63;;
44197;SDS011;30157;55.512;37.764;2023-12-07T12:35:38;19.00;;;7.50;;
44197;SDS011;30157;55.512;37.764;2023-12-07T12:38:07;28.33;;;9.85;;
44197;SDS011;30157;55.512;37.764;2023-12-07T12:40:36;19.83;;;8.98;;
44197;SDS011;30157;55.512;37.764;2023-12-07T12:43:01;24.88;;;9.93;;
44197;SDS011;30157;55.512;37.764;2023-12-07T12:45:27;23.25;;;10.07;;
44197;SDS011;30157;55.512;37.764;2023-12-07T12:47:53;24.58;;;9.85;;
44197;SDS011;30157;55.512;37.764;2023-12-07T12:50:38;25.48;;;10.98;;
44197;SDS011;30157;55.512;37.764;2023-12-07T12:53:06;23.02;;;9.68;;
44197;SDS011;30157;55.512;37.764;2023-12-07T12:55:35;26.23;;;9.18;;
44197;SDS011;30157;55.512;37.764;2023-12-07T12:58:01;23.95;;;9.35;;
44197;SDS011;30157;55.512;37.764;2023-12-07T13:00:30;24.05;;;8.95;;
44197;SDS011;30157;55.512;37.764;2023-12-07T13:03:03;24.23;;;9.43;;
44197;SDS011;30157;55.512;37.764;2023-12-07T13:05:30;23.67;;;9.07;;
44197;SDS011;30157;55.512;37.764;2023-12-07T13:07:58;22.08;;;8.65;;
44197;SDS011;30157;55.512;37.764;2023-12-07T13:10:25;27.85;;;9.55;;
44197;SDS011;30157;55.512;37.764;2023-12-07T13:12:51;22.40;;;9.40;;
44197;SDS011;30157;55.512;37.764;2023-12-07T13:15:17;20.98;;;8.63;;
44197;SDS011;30157;55.512;37.764;2023-12-07T13:17:43;21.05;;;8.40;;
44197;SDS011;30157;55.512;37.764;2023-12-07T13:20:09;26.13;;;8.68;;
44197;SDS011;30157;55.512;37.764;2023-12-07T13:22:42;33.65;;;10.75;;
44197;SDS011;30157;55.512;37.764;2023-12-07T13:25:12;21.77;;;8.68;;
44197;SDS011;30157;55.512;37.764;2023-12-07T13:27:40;23.00;;;9.57;;
44197;SDS011;30157;55.512;37.764;2023-12-07T13:30:09;18.05;;;7.80;;
44197;SDS011;30157;55.512;37.764;2023-12-07T13:32:35;20.15;;;9.18;;
44197;SDS011;30157;55.512;37.764;2023-12-07T13:35:05;27.77;;;10.05;;
44197;SDS011;30157;55.512;37.764;2023-12-07T13:37:33;17.30;;;7.03;;
44197;SDS011;30157;55.512;37.764;2023-12-07T13:40:00;18.60;;;8.25;;
44197;SDS011;30157;55.512;37.764;2023-12-07T13:42:30;22.10;;;9.77;;
44197;SDS011;30157;55.512;37.764;2023-12-07T13:44:57;19.95;;;8.75;;
44197;SDS011;30157;55.512;37.764;2023-12-07T13:47:24;24.40;;;10.60;;
44197;SDS011;30157;55.512;37.764;2023-12-07T13:50:03;29.33;;;10.27;;
44197;SDS011;30157;55.512;37.764;2023-12-07T13:52:31;26.05;;;10.75;;
44197;SDS011;30157;55.512;37.764;2023-12-07T13:54:58;21.67;;;8.88;;
44197;SDS011;30157;55.512;37.764;2023-12-07T13:57:24;20.80;;;8.90;;
44197;SDS011;30157;55.512;37.764;2023-12-07T13:59:50;24.30;;;8.98;;
44197;SDS011;30157;55.512;37.764;2023-12-07T14:02:17;24.05;;;9.23;;
44197;SDS011;30157;55.512;37.764;2023-12-07T14:04:43;21.00;;;9.27;;
44197;SDS011;30157;55.512;37.764;2023-12-07T14:07:13;24.98;;;9.40;;
44197;SDS011;30157;55.512;37.764;2023-12-07T14:09:41;22.20;;;9.38;;
44197;SDS011;30157;55.512;37.764;2023-12-07T14:12:12;19.35;;;8.20;;
44197;SDS011;30157;55.512;37.764;2023-12-07T14:14:40;19.23;;;8.40;;
44197;SDS011;30157;55.512;37.764;2023-12-07T14:17:07;24.50;;;9.10;;
44197;SDS011;30157;55.512;37.764;2023-12-07T14:19:32;22.23;;;8.85;;
44197;SDS011;30157;55.512;37.764;2023-12-07T14:21:58;20.20;;;9.63;;
44197;SDS011;30157;55.512;37.764;2023-12-07T14:24:24;25.33;;;9.60;;
44197;SDS011;30157;55.512;37.764;2023-12-07T14:26:50;24.15;;;9.82;;